sensor_id;sensor_type;location;lat;lon;timestamp;P1;durP1;ratioP1;P2;durP2;ratioP2
16766;SDS011;8501;49.926;8.404;2023-09-30T00:00:25;5.18;;;2.63;;
16766;SDS011;8501;49.926;8.404;2023-09-30T00:02:50;5.30;;;2.65;;
16766;SDS011;8501;49.926;8.404;2023-09-30T00:05:16;7.85;;;2.85;;
16766;SDS011;8501;49.926;8.404;2023-09-30T00:07:44;8.27;;;3.10;;
16766;SDS011;8501;49.926;8.404;2023-09-30T00:10:13;5.32;;;2.60;;
16766;SDS011;8501;49.926;8.404;2023-09-30T00:12:39;5.68;;;3.10;;
16766;SDS011;8501;49.926;8.404;2023-09-30T00:15:05;6.40;;;3.13;;
16766;SDS011;8501;49.926;8.404;2023-09-30T00:20:05;5.47;;;2.67;;
16766;SDS011;8501;49.926;8.404;2023-09-30T00:22:32;5.95;;;3.00;;
16766;SDS011;8501;49.926;8.404;2023-09-30T00:24:58;5.63;;;3.17;;
16766;SDS011;8501;49.926;8.404;2023-09-30T00:27:23;5.55;;;2.97;;
16766;SDS011;8501;49.926;8.404;2023-09-30T00:29:49;4.03;;;2.67;;
16766;SDS011;8501;49.926;8.404;2023-09-30T00:32:14;6.72;;;3.13;;
16766;SDS011;8501;49.926;8.404;2023-09-30T00:34:40;8.00;;;3.28;;
16766;SDS011;8501;49.926;8.404;2023-09-30T00:37:05;5.05;;;2.80;;
16766;SDS011;8501;49.926;8.404;2023-09-30T00:39:32;6.13;;;3.00;;
16766;SDS011;8501;49.926;8.404;2023-09-30T00:41:58;8.13;;;3.30;;
16766;SDS011;8501;49.926;8.404;2023-09-30T00:44:24;7.00;;;3.22;;
16766;SDS011;8501;49.926;8.404;2023-09-30T00:46:51;6.05;;;3.65;;
16766;SDS011;8501;49.926;8.404;2023-09-30T00:49:17;8.60;;;3.85;;
16766;SDS011;8501;49.926;8.404;2023-09-30T00:51:43;9.15;;;3.25;;
16766;SDS011;8501;49.926;8.404;2023-09-30T00:54:12;7.13;;;3.35;;
16766;SDS011;8501;49.926;8.404;2023-09-30T00:56:41;7.80;;;3.50;;
16766;SDS011;8501;49.926;8.404;2023-09-30T00:59:13;6.22;;;3.90;;
16766;SDS011;8501;49.926;8.404;2023-09-30T01:01:43;7.25;;;3.60;;
16766;SDS011;8501;49.926;8.404;2023-09-30T01:04:10;8.43;;;3.50;;
16766;SDS011;8501;49.926;8.404;2023-09-30T01:06:36;6.07;;;3.25;;
16766;SDS011;8501;49.926;8.404;2023-09-30T01:09:02;5.93;;;3.28;;
16766;SDS011;8501;49.926;8.404;2023-09-30T01:11:28;5.25;;;3.33;;
16766;SDS011;8501;49.926;8.404;2023-09-30T01:13:54;6.68;;;3.78;;
16766;SDS011;8501;49.926;8.404;2023-09-30T01:16:20;7.60;;;3.65;;
16766;SDS011;8501;49.926;8.404;2023-09-30T01:18:46;7.05;;;3.58;;
16766;SDS011;8501;49.926;8.404;2023-09-30T01:21:12;5.90;;;3.15;;
16766;SDS011;8501;49.926;8.404;2023-09-30T01:23:37;7.47;;;3.30;;
16766;SDS011;8501;49.926;8.404;2023-09-30T01:26:09;7.00;;;3.63;;
16766;SDS011;8501;49.926;8.404;2023-09-30T01:28:37;6.93;;;3.50;;
16766;SDS011;8501;49.926;8.404;2023-09-30T01:31:03;9.48;;;3.67;;
16766;SDS011;8501;49.926;8.404;2023-09-30T01:33:29;6.35;;;3.47;;
16766;SDS011;8501;49.926;8.404;2023-09-30T01:35:55;6.82;;;3.47;;
16766;SDS011;8501;49.926;8.404;2023-09-30T01:38:20;8.20;;;3.67;;
16766;SDS011;8501;49.926;8.404;2023-09-30T01:40:46;7.20;;;3.88;;
16766;SDS011;8501;49.926;8.404;2023-09-30T01:43:15;7.10;;;3.50;;
16766;SDS011;8501;49.926;8.404;2023-09-30T01:45:42;5.85;;;3.28;;
16766;SDS011;8501;49.926;8.404;2023-09-30T01:48:08;6.88;;;3.65;;
16766;SDS011;8501;49.926;8.404;2023-09-30T01:50:37;5.05;;;3.17;;
16766;SDS011;8501;49.926;8.404;2023-09-30T01:53:03;8.13;;;3.90;;
16766;SDS011;8501;49.926;8.404;2023-09-30T01:55:31;7.55;;;4.43;;
16766;SDS011;8501;49.926;8.404;2023-09-30T01:57:57;6.82;;;4.00;;
16766;SDS011;8501;49.926;8.404;2023-09-30T02:00:22;8.55;;;4.10;;
16766;SDS011;8501;49.926;8.404;2023-09-30T02:02:48;8.88;;;4.15;;
16766;SDS011;8501;49.926;8.404;2023-09-30T02:05:13;6.60;;;3.83;;
16766;SDS011;8501;49.926;8.404;2023-09-30T02:07:39;6.85;;;4.22;;
16766;SDS011;8501;49.926;8.404;2023-09-30T02:10:06;7.05;;;4.13;;
16766;SDS011;8501;49.926;8.404;2023-09-30T02:12:32;6.53;;;4.20;;
16766;SDS011;8501;49.926;8.404;2023-09-30T02:14:58;9.65;;;4.50;;
16766;SDS011;8501;49.926;8.404;2023-09-30T02:17:23;7.53;;;4.68;;
16766;SDS011;8501;49.926;8.404;2023-09-30T02:19:49;7.55;;;4.95;;
16766;SDS011;8501;49.926;8.404;2023-09-30T02:22:15;9.98;;;5.05;;
16766;SDS011;8501;49.926;8.404;2023-09-30T02:24:40;8.77;;;5.00;;
16766;SDS011;8501;49.926;8.404;2023-09-30T02:27:06;11.25;;;5.43;;
16766;SDS011;8501;49.926;8.404;2023-09-30T02:29:32;9.32;;;5.47;;
16766;SDS011;8501;49.926;8.404;2023-09-30T02:31:57;7.47;;;5.30;;
16766;SDS011;8501;49.926;8.404;2023-09-30T02:34:23;10.52;;;5.55;;
16766;SDS011;8501;49.926;8.404;2023-09-30T02:36:49;7.10;;;5.13;;
16766;SDS011;8501;49.926;8.404;2023-09-30T02:39:15;7.95;;;5.25;;
16766;SDS011;8501;49.926;8.404;2023-09-30T02:41:41;8.80;;;5.28;;
16766;SDS011;8501;49.926;8.404;2023-09-30T02:44:07;8.93;;;5.60;;
16766;SDS011;8501;49.926;8.404;2023-09-30T02:46:32;7.25;;;5.20;;
16766;SDS011;8501;49.926;8.404;2023-09-30T02:49:00;9.95;;;5.20;;
16766;SDS011;8501;49.926;8.404;2023-09-30T02:51:26;9.05;;;5.15;;
16766;SDS011;8501;49.926;8.404;2023-09-30T02:53:51;8.23;;;5.00;;
16766;SDS011;8501;49.926;8.404;2023-09-30T02:56:17;11.05;;;5.28;;
16766;SDS011;8501;49.926;8.404;2023-09-30T02:58:45;9.00;;;5.78;;
16766;SDS011;8501;49.926;8.404;2023-09-30T03:01:13;11.38;;;5.60;;
16766;SDS011;8501;49.926;8.404;2023-09-30T03:03:41;11.95;;;5.20;;
16766;SDS011;8501;49.926;8.404;2023-09-30T03:06:09;10.52;;;5.65;;
16766;SDS011;8501;49.926;8.404;2023-09-30T03:08:35;11.27;;;5.07;;
16766;SDS011;8501;49.926;8.404;2023-09-30T03:11:01;10.25;;;4.78;;
16766;SDS011;8501;49.926;8.404;2023-09-30T03:13:27;9.73;;;4.82;;
16766;SDS011;8501;49.926;8.404;2023-09-30T03:15:52;7.40;;;4.88;;
16766;SDS011;8501;49.926;8.404;2023-09-30T03:18:18;11.73;;;4.95;;
16766;SDS011;8501;49.926;8.404;2023-09-30T03:20:51;8.07;;;4.78;;
16766;SDS011;8501;49.926;8.404;2023-09-30T03:23:25;12.15;;;5.32;;
16766;SDS011;8501;49.926;8.404;2023-09-30T03:25:56;9.27;;;5.05;;
16766;SDS011;8501;49.926;8.404;2023-09-30T03:28:22;11.13;;;5.45;;
16766;SDS011;8501;49.926;8.404;2023-09-30T03:30:48;11.00;;;5.10;;
16766;SDS011;8501;49.926;8.404;2023-09-30T03:33:13;10.15;;;5.30;;
16766;SDS011;8501;49.926;8.404;2023-09-30T03:35:39;9.57;;;5.35;;
16766;SDS011;8501;49.926;8.404;2023-09-30T03:38:04;10.75;;;5.38;;
16766;SDS011;8501;49.926;8.404;2023-09-30T03:40:31;12.63;;;5.20;;
16766;SDS011;8501;49.926;8.404;2023-09-30T03:42:58;9.23;;;4.97;;
16766;SDS011;8501;49.926;8.404;2023-09-30T03:45:24;10.57;;;5.28;;
16766;SDS011;8501;49.926;8.404;2023-09-30T03:47:50;10.02;;;5.35;;
16766;SDS011;8501;49.926;8.404;2023-09-30T03:50:16;11.00;;;5.45;;
16766;SDS011;8501;49.926;8.404;2023-09-30T03:52:43;10.50;;;5.40;;
16766;SDS011;8501;49.926;8.404;2023-09-30T03:55:10;11.45;;;5.63;;
16766;SDS011;8501;49.926;8.404;2023-09-30T03:57:37;11.23;;;5.80;;
16766;SDS011;8501;49.926;8.404;2023-09-30T04:00:03;10.35;;;5.50;;
16766;SDS011;8501;49.926;8.404;2023-09-30T04:02:31;14.30;;;5.90;;
16766;SDS011;8501;49.926;8.404;2023-09-30T04:04:57;11.25;;;5.88;;
16766;SDS011;8501;49.926;8.404;2023-09-30T04:07:24;12.88;;;5.57;;
16766;SDS011;8501;49.926;8.404;2023-09-30T04:09:52;11.93;;;5.35;;
16766;SDS011;8501;49.926;8.404;2023-09-30T04:12:21;13.52;;;5.60;;
16766;SDS011;8501;49.926;8.404;2023-09-30T04:14:50;10.45;;;5.30;;
16766;SDS011;8501;49.926;8.404;2023-09-30T04:17:17;11.52;;;5.50;;
16766;SDS011;8501;49.926;8.404;2023-09-30T04:19:42;9.48;;;5.13;;
16766;SDS011;8501;49.926;8.404;2023-09-30T04:22:08;12.52;;;5.30;;
16766;SDS011;8501;49.926;8.404;2023-09-30T04:24:34;11.40;;;5.18;;
16766;SDS011;8501;49.926;8.404;2023-09-30T04:26:59;15.02;;;5.53;;
16766;SDS011;8501;49.926;8.404;2023-09-30T04:29:28;11.18;;;5.05;;
16766;SDS011;8501;49.926;8.404;2023-09-30T04:31:54;11.80;;;5.45;;
16766;SDS011;8501;49.926;8.404;2023-09-30T04:34:23;10.10;;;5.05;;
16766;SDS011;8501;49.926;8.404;2023-09-30T04:36:49;11.70;;;5.13;;
16766;SDS011;8501;49.926;8.404;2023-09-30T04:39:14;10.73;;;4.97;;
16766;SDS011;8501;49.926;8.404;2023-09-30T04:41:40;12.30;;;5.70;;
16766;SDS011;8501;49.926;8.404;2023-09-30T04:44:06;10.68;;;5.70;;
16766;SDS011;8501;49.926;8.404;2023-09-30T04:46:35;15.45;;;5.75;;
16766;SDS011;8501;49.926;8.404;2023-09-30T04:49:00;11.85;;;5.25;;
16766;SDS011;8501;49.926;8.404;2023-09-30T04:51:27;14.52;;;5.63;;
16766;SDS011;8501;49.926;8.404;2023-09-30T04:53:53;12.23;;;5.82;;
16766;SDS011;8501;49.926;8.404;2023-09-30T04:56:20;14.77;;;5.63;;
16766;SDS011;8501;49.926;8.404;2023-09-30T04:58:45;14.30;;;5.97;;
16766;SDS011;8501;49.926;8.404;2023-09-30T05:01:12;10.68;;;5.70;;
16766;SDS011;8501;49.926;8.404;2023-09-30T05:03:37;10.15;;;5.28;;
16766;SDS011;8501;49.926;8.404;2023-09-30T05:06:03;12.40;;;5.50;;
16766;SDS011;8501;49.926;8.404;2023-09-30T05:08:29;12.48;;;5.70;;
16766;SDS011;8501;49.926;8.404;2023-09-30T05:10:56;14.90;;;5.65;;
16766;SDS011;8501;49.926;8.404;2023-09-30T05:13:21;10.40;;;5.50;;
16766;SDS011;8501;49.926;8.404;2023-09-30T05:15:50;9.48;;;5.57;;
16766;SDS011;8501;49.926;8.404;2023-09-30T05:18:16;8.60;;;5.18;;
16766;SDS011;8501;49.926;8.404;2023-09-30T05:20:42;12.57;;;5.38;;
16766;SDS011;8501;49.926;8.404;2023-09-30T05:23:07;9.63;;;4.95;;
16766;SDS011;8501;49.926;8.404;2023-09-30T05:25:33;9.63;;;5.18;;
16766;SDS011;8501;49.926;8.404;2023-09-30T05:27:58;12.07;;;5.97;;
16766;SDS011;8501;49.926;8.404;2023-09-30T05:30:24;12.52;;;5.60;;
16766;SDS011;8501;49.926;8.404;2023-09-30T05:32:51;10.63;;;5.60;;
16766;SDS011;8501;49.926;8.404;2023-09-30T05:35:17;10.20;;;5.80;;
16766;SDS011;8501;49.926;8.404;2023-09-30T05:37:43;9.90;;;5.50;;
16766;SDS011;8501;49.926;8.404;2023-09-30T05:40:10;12.35;;;5.70;;
16766;SDS011;8501;49.926;8.404;2023-09-30T05:42:47;11.75;;;5.80;;
16766;SDS011;8501;49.926;8.404;2023-09-30T05:45:13;10.07;;;5.55;;
16766;SDS011;8501;49.926;8.404;2023-09-30T05:47:39;12.00;;;5.70;;
16766;SDS011;8501;49.926;8.404;2023-09-30T05:50:06;12.70;;;5.75;;
16766;SDS011;8501;49.926;8.404;2023-09-30T05:52:33;10.75;;;5.85;;
16766;SDS011;8501;49.926;8.404;2023-09-30T05:54:59;12.55;;;6.38;;
16766;SDS011;8501;49.926;8.404;2023-09-30T05:57:26;13.88;;;6.13;;
16766;SDS011;8501;49.926;8.404;2023-09-30T05:59:52;11.43;;;6.10;;
16766;SDS011;8501;49.926;8.404;2023-09-30T06:02:18;16.27;;;6.43;;
16766;SDS011;8501;49.926;8.404;2023-09-30T06:04:44;12.27;;;6.40;;
16766;SDS011;8501;49.926;8.404;2023-09-30T06:07:11;13.40;;;6.53;;
16766;SDS011;8501;49.926;8.404;2023-09-30T06:09:37;11.07;;;6.50;;
16766;SDS011;8501;49.926;8.404;2023-09-30T06:12:02;13.27;;;6.55;;
16766;SDS011;8501;49.926;8.404;2023-09-30T06:14:31;14.23;;;6.75;;
16766;SDS011;8501;49.926;8.404;2023-09-30T06:16:57;17.45;;;7.18;;
16766;SDS011;8501;49.926;8.404;2023-09-30T06:19:23;12.90;;;6.72;;
16766;SDS011;8501;49.926;8.404;2023-09-30T06:21:50;14.73;;;7.05;;
16766;SDS011;8501;49.926;8.404;2023-09-30T06:24:17;15.32;;;7.05;;
16766;SDS011;8501;49.926;8.404;2023-09-30T06:26:44;14.38;;;7.13;;
16766;SDS011;8501;49.926;8.404;2023-09-30T06:29:10;14.20;;;6.88;;
16766;SDS011;8501;49.926;8.404;2023-09-30T06:31:36;15.00;;;7.38;;
16766;SDS011;8501;49.926;8.404;2023-09-30T06:34:02;11.13;;;6.72;;
16766;SDS011;8501;49.926;8.404;2023-09-30T06:36:29;14.45;;;6.50;;
16766;SDS011;8501;49.926;8.404;2023-09-30T06:38:55;17.02;;;7.65;;
16766;SDS011;8501;49.926;8.404;2023-09-30T06:41:20;11.88;;;7.05;;
16766;SDS011;8501;49.926;8.404;2023-09-30T06:43:46;15.65;;;7.55;;
16766;SDS011;8501;49.926;8.404;2023-09-30T06:46:12;15.25;;;8.05;;
16766;SDS011;8501;49.926;8.404;2023-09-30T06:48:38;14.43;;;7.57;;
16766;SDS011;8501;49.926;8.404;2023-09-30T06:51:05;14.20;;;7.30;;
16766;SDS011;8501;49.926;8.404;2023-09-30T06:53:31;16.92;;;7.70;;
16766;SDS011;8501;49.926;8.404;2023-09-30T06:55:56;13.50;;;8.15;;
16766;SDS011;8501;49.926;8.404;2023-09-30T06:58:22;15.70;;;7.85;;
16766;SDS011;8501;49.926;8.404;2023-09-30T07:00:51;11.70;;;7.28;;
16766;SDS011;8501;49.926;8.404;2023-09-30T07:03:20;16.90;;;7.85;;
16766;SDS011;8501;49.926;8.404;2023-09-30T07:05:46;17.17;;;8.15;;
16766;SDS011;8501;49.926;8.404;2023-09-30T07:08:15;14.75;;;7.63;;
16766;SDS011;8501;49.926;8.404;2023-09-30T07:10:41;16.58;;;7.65;;
16766;SDS011;8501;49.926;8.404;2023-09-30T07:13:07;13.13;;;7.28;;
16766;SDS011;8501;49.926;8.404;2023-09-30T07:15:33;12.77;;;7.63;;
16766;SDS011;8501;49.926;8.404;2023-09-30T07:17:58;13.73;;;7.70;;
16766;SDS011;8501;49.926;8.404;2023-09-30T07:20:24;19.30;;;8.55;;
16766;SDS011;8501;49.926;8.404;2023-09-30T07:22:50;18.10;;;9.45;;
16766;SDS011;8501;49.926;8.404;2023-09-30T07:25:16;19.45;;;8.98;;
16766;SDS011;8501;49.926;8.404;2023-09-30T07:27:45;19.95;;;9.40;;
16766;SDS011;8501;49.926;8.404;2023-09-30T07:30:11;17.90;;;9.75;;
16766;SDS011;8501;49.926;8.404;2023-09-30T07:32:41;17.00;;;9.23;;
16766;SDS011;8501;49.926;8.404;2023-09-30T07:35:07;14.90;;;8.32;;
16766;SDS011;8501;49.926;8.404;2023-09-30T07:37:33;14.45;;;8.55;;
16766;SDS011;8501;49.926;8.404;2023-09-30T07:39:58;17.25;;;9.25;;
16766;SDS011;8501;49.926;8.404;2023-09-30T07:42:24;16.30;;;8.88;;
16766;SDS011;8501;49.926;8.404;2023-09-30T07:44:50;15.70;;;8.98;;
16766;SDS011;8501;49.926;8.404;2023-09-30T07:47:16;17.40;;;8.55;;
16766;SDS011;8501;49.926;8.404;2023-09-30T07:49:42;18.13;;;8.52;;
16766;SDS011;8501;49.926;8.404;2023-09-30T07:52:08;17.02;;;8.88;;
16766;SDS011;8501;49.926;8.404;2023-09-30T07:54:34;16.13;;;8.05;;
16766;SDS011;8501;49.926;8.404;2023-09-30T07:56:59;15.95;;;8.77;;
16766;SDS011;8501;49.926;8.404;2023-09-30T07:59:25;20.23;;;9.13;;
16766;SDS011;8501;49.926;8.404;2023-09-30T08:01:51;17.65;;;8.30;;
16766;SDS011;8501;49.926;8.404;2023-09-30T08:04:17;13.60;;;7.72;;
16766;SDS011;8501;49.926;8.404;2023-09-30T08:06:43;19.17;;;8.75;;
16766;SDS011;8501;49.926;8.404;2023-09-30T08:09:09;18.50;;;9.15;;
16766;SDS011;8501;49.926;8.404;2023-09-30T08:11:38;18.48;;;8.82;;
16766;SDS011;8501;49.926;8.404;2023-09-30T08:14:03;16.75;;;8.30;;
16766;SDS011;8501;49.926;8.404;2023-09-30T08:16:40;12.55;;;7.60;;
16766;SDS011;8501;49.926;8.404;2023-09-30T08:19:06;13.98;;;8.23;;
16766;SDS011;8501;49.926;8.404;2023-09-30T08:21:32;16.13;;;8.00;;
16766;SDS011;8501;49.926;8.404;2023-09-30T08:23:57;19.45;;;8.32;;
16766;SDS011;8501;49.926;8.404;2023-09-30T08:26:24;16.17;;;8.30;;
16766;SDS011;8501;49.926;8.404;2023-09-30T08:28:50;14.82;;;7.90;;
16766;SDS011;8501;49.926;8.404;2023-09-30T08:31:16;15.55;;;7.85;;
16766;SDS011;8501;49.926;8.404;2023-09-30T08:33:41;14.48;;;7.25;;
16766;SDS011;8501;49.926;8.404;2023-09-30T08:36:09;14.77;;;7.38;;
16766;SDS011;8501;49.926;8.404;2023-09-30T08:38:38;14.48;;;7.38;;
16766;SDS011;8501;49.926;8.404;2023-09-30T08:41:05;11.57;;;6.38;;
16766;SDS011;8501;49.926;8.404;2023-09-30T08:43:32;12.23;;;7.07;;
16766;SDS011;8501;49.926;8.404;2023-09-30T08:46:03;15.38;;;7.70;;
16766;SDS011;8501;49.926;8.404;2023-09-30T08:48:30;15.82;;;7.72;;
16766;SDS011;8501;49.926;8.404;2023-09-30T08:50:58;14.60;;;6.82;;
16766;SDS011;8501;49.926;8.404;2023-09-30T08:53:25;15.07;;;6.05;;
16766;SDS011;8501;49.926;8.404;2023-09-30T08:55:54;13.52;;;5.93;;
16766;SDS011;8501;49.926;8.404;2023-09-30T08:58:26;12.68;;;5.28;;
16766;SDS011;8501;49.926;8.404;2023-09-30T09:00:52;10.65;;;4.85;;
16766;SDS011;8501;49.926;8.404;2023-09-30T09:03:19;11.23;;;4.88;;
16766;SDS011;8501;49.926;8.404;2023-09-30T09:05:45;12.40;;;4.60;;
16766;SDS011;8501;49.926;8.404;2023-09-30T09:08:12;14.48;;;5.45;;
16766;SDS011;8501;49.926;8.404;2023-09-30T09:13:22;10.95;;;4.53;;
16766;SDS011;8501;49.926;8.404;2023-09-30T09:15:47;10.88;;;4.95;;
16766;SDS011;8501;49.926;8.404;2023-09-30T09:18:19;8.38;;;3.65;;
16766;SDS011;8501;49.926;8.404;2023-09-30T09:21:11;9.57;;;3.80;;
16766;SDS011;8501;49.926;8.404;2023-09-30T09:23:41;9.70;;;3.95;;
16766;SDS011;8501;49.926;8.404;2023-09-30T09:26:09;9.98;;;3.80;;
16766;SDS011;8501;49.926;8.404;2023-09-30T09:28:58;7.97;;;3.72;;
16766;SDS011;8501;49.926;8.404;2023-09-30T09:31:29;8.00;;;3.85;;
16766;SDS011;8501;49.926;8.404;2023-09-30T09:33:57;8.38;;;4.50;;
16766;SDS011;8501;49.926;8.404;2023-09-30T09:36:38;9.52;;;4.53;;
16766;SDS011;8501;49.926;8.404;2023-09-30T09:39:06;8.75;;;4.28;;
16766;SDS011;8501;49.926;8.404;2023-09-30T09:41:32;10.93;;;4.60;;
16766;SDS011;8501;49.926;8.404;2023-09-30T09:43:58;11.10;;;4.82;;
16766;SDS011;8501;49.926;8.404;2023-09-30T09:46:24;11.25;;;4.75;;
16766;SDS011;8501;49.926;8.404;2023-09-30T09:48:52;9.05;;;4.72;;
16766;SDS011;8501;49.926;8.404;2023-09-30T09:51:19;7.57;;;4.20;;
16766;SDS011;8501;49.926;8.404;2023-09-30T09:53:46;9.23;;;4.57;;
16766;SDS011;8501;49.926;8.404;2023-09-30T09:56:14;10.10;;;4.30;;
16766;SDS011;8501;49.926;8.404;2023-09-30T09:58:41;7.13;;;4.43;;
16766;SDS011;8501;49.926;8.404;2023-09-30T10:01:08;11.63;;;4.63;;
16766;SDS011;8501;49.926;8.404;2023-09-30T10:03:35;11.75;;;4.90;;
16766;SDS011;8501;49.926;8.404;2023-09-30T10:06:02;9.98;;;4.50;;
16766;SDS011;8501;49.926;8.404;2023-09-30T10:08:33;9.07;;;4.57;;
16766;SDS011;8501;49.926;8.404;2023-09-30T10:11:06;8.98;;;4.50;;
16766;SDS011;8501;49.926;8.404;2023-09-30T10:13:50;9.73;;;4.60;;
16766;SDS011;8501;49.926;8.404;2023-09-30T10:19:10;9.45;;;4.28;;
16766;SDS011;8501;49.926;8.404;2023-09-30T10:21:36;10.20;;;4.75;;
16766;SDS011;8501;49.926;8.404;2023-09-30T10:26:46;10.30;;;4.63;;
16766;SDS011;8501;49.926;8.404;2023-09-30T10:29:12;10.23;;;5.00;;
16766;SDS011;8501;49.926;8.404;2023-09-30T10:31:50;11.10;;;5.35;;
16766;SDS011;8501;49.926;8.404;2023-09-30T10:34:22;9.35;;;5.13;;
16766;SDS011;8501;49.926;8.404;2023-09-30T10:36:48;13.20;;;5.80;;
16766;SDS011;8501;49.926;8.404;2023-09-30T10:39:19;9.93;;;4.70;;
16766;SDS011;8501;49.926;8.404;2023-09-30T10:50:59;8.38;;;4.40;;
16766;SDS011;8501;49.926;8.404;2023-09-30T10:53:52;9.02;;;4.93;;
16766;SDS011;8501;49.926;8.404;2023-09-30T10:56:22;11.48;;;5.10;;
16766;SDS011;8501;49.926;8.404;2023-09-30T10:58:49;7.43;;;4.60;;
16766;SDS011;8501;49.926;8.404;2023-09-30T11:01:17;8.15;;;4.32;;
16766;SDS011;8501;49.926;8.404;2023-09-30T11:03:45;7.78;;;4.32;;
16766;SDS011;8501;49.926;8.404;2023-09-30T11:06:12;9.43;;;4.40;;
16766;SDS011;8501;49.926;8.404;2023-09-30T11:08:44;8.55;;;4.47;;
16766;SDS011;8501;49.926;8.404;2023-09-30T11:11:12;8.50;;;4.88;;
16766;SDS011;8501;49.926;8.404;2023-09-30T11:13:39;9.75;;;4.97;;
16766;SDS011;8501;49.926;8.404;2023-09-30T11:16:05;8.55;;;4.53;;
16766;SDS011;8501;49.926;8.404;2023-09-30T11:18:31;9.30;;;4.93;;
16766;SDS011;8501;49.926;8.404;2023-09-30T11:21:10;8.20;;;4.93;;
16766;SDS011;8501;49.926;8.404;2023-09-30T11:23:38;8.95;;;4.78;;
16766;SDS011;8501;49.926;8.404;2023-09-30T11:26:05;7.20;;;4.10;;
16766;SDS011;8501;49.926;8.404;2023-09-30T11:28:38;10.95;;;4.50;;
16766;SDS011;8501;49.926;8.404;2023-09-30T11:31:07;7.38;;;4.28;;
16766;SDS011;8501;49.926;8.404;2023-09-30T11:33:46;7.95;;;4.18;;
16766;SDS011;8501;49.926;8.404;2023-09-30T11:36:23;7.88;;;4.10;;
16766;SDS011;8501;49.926;8.404;2023-09-30T11:38:49;7.18;;;4.13;;
16766;SDS011;8501;49.926;8.404;2023-09-30T11:41:16;7.53;;;4.03;;
16766;SDS011;8501;49.926;8.404;2023-09-30T11:44:16;6.55;;;4.07;;
16766;SDS011;8501;49.926;8.404;2023-09-30T11:51:53;6.72;;;4.22;;
16766;SDS011;8501;49.926;8.404;2023-09-30T11:54:19;7.00;;;4.18;;
16766;SDS011;8501;49.926;8.404;2023-09-30T11:56:46;8.35;;;4.05;;
16766;SDS011;8501;49.926;8.404;2023-09-30T11:59:12;6.63;;;4.03;;
16766;SDS011;8501;49.926;8.404;2023-09-30T12:01:38;9.23;;;4.50;;
16766;SDS011;8501;49.926;8.404;2023-09-30T12:04:04;6.57;;;3.90;;
16766;SDS011;8501;49.926;8.404;2023-09-30T12:06:29;7.95;;;4.47;;
16766;SDS011;8501;49.926;8.404;2023-09-30T12:08:55;6.80;;;3.83;;
16766;SDS011;8501;49.926;8.404;2023-09-30T12:11:21;6.97;;;4.18;;
16766;SDS011;8501;49.926;8.404;2023-09-30T12:13:49;7.00;;;4.25;;
16766;SDS011;8501;49.926;8.404;2023-09-30T12:16:15;7.75;;;4.07;;
16766;SDS011;8501;49.926;8.404;2023-09-30T12:18:41;6.53;;;4.00;;
16766;SDS011;8501;49.926;8.404;2023-09-30T12:21:08;6.95;;;3.92;;
16766;SDS011;8501;49.926;8.404;2023-09-30T12:23:35;5.43;;;3.50;;
16766;SDS011;8501;49.926;8.404;2023-09-30T12:26:02;5.50;;;3.78;;
16766;SDS011;8501;49.926;8.404;2023-09-30T12:28:30;7.15;;;3.65;;
16766;SDS011;8501;49.926;8.404;2023-09-30T12:31:01;7.53;;;3.95;;
16766;SDS011;8501;49.926;8.404;2023-09-30T12:33:31;6.93;;;3.97;;
16766;SDS011;8501;49.926;8.404;2023-09-30T12:35:57;7.63;;;3.78;;
16766;SDS011;8501;49.926;8.404;2023-09-30T12:38:24;6.55;;;3.78;;
16766;SDS011;8501;49.926;8.404;2023-09-30T12:40:53;5.75;;;3.83;;
16766;SDS011;8501;49.926;8.404;2023-09-30T12:43:20;6.72;;;3.80;;
16766;SDS011;8501;49.926;8.404;2023-09-30T12:45:51;5.93;;;3.90;;
16766;SDS011;8501;49.926;8.404;2023-09-30T12:48:17;5.03;;;3.70;;
16766;SDS011;8501;49.926;8.404;2023-09-30T12:50:43;6.60;;;3.78;;
16766;SDS011;8501;49.926;8.404;2023-09-30T12:53:09;6.95;;;4.20;;
16766;SDS011;8501;49.926;8.404;2023-09-30T12:55:35;6.50;;;3.85;;
16766;SDS011;8501;49.926;8.404;2023-09-30T12:58:03;6.13;;;3.65;;
16766;SDS011;8501;49.926;8.404;2023-09-30T13:00:30;7.03;;;3.88;;
16766;SDS011;8501;49.926;8.404;2023-09-30T13:02:57;7.13;;;3.85;;
16766;SDS011;8501;49.926;8.404;2023-09-30T13:05:24;5.50;;;3.40;;
16766;SDS011;8501;49.926;8.404;2023-09-30T13:07:50;6.15;;;3.92;;
16766;SDS011;8501;49.926;8.404;2023-09-30T13:10:17;6.57;;;3.97;;
16766;SDS011;8501;49.926;8.404;2023-09-30T13:12:44;5.22;;;3.40;;
16766;SDS011;8501;49.926;8.404;2023-09-30T13:15:09;8.05;;;4.65;;
16766;SDS011;8501;49.926;8.404;2023-09-30T13:17:39;5.97;;;4.00;;
16766;SDS011;8501;49.926;8.404;2023-09-30T13:20:04;6.80;;;4.10;;
16766;SDS011;8501;49.926;8.404;2023-09-30T13:22:30;6.55;;;3.95;;
16766;SDS011;8501;49.926;8.404;2023-09-30T13:24:57;8.07;;;4.10;;
16766;SDS011;8501;49.926;8.404;2023-09-30T13:27:25;5.95;;;4.10;;
16766;SDS011;8501;49.926;8.404;2023-09-30T13:29:50;7.95;;;4.22;;
16766;SDS011;8501;49.926;8.404;2023-09-30T13:32:19;6.35;;;3.65;;
16766;SDS011;8501;49.926;8.404;2023-09-30T13:34:45;6.75;;;3.75;;
16766;SDS011;8501;49.926;8.404;2023-09-30T13:37:10;8.38;;;3.83;;
16766;SDS011;8501;49.926;8.404;2023-09-30T13:39:36;8.38;;;4.30;;
16766;SDS011;8501;49.926;8.404;2023-09-30T13:42:03;7.20;;;3.80;;
16766;SDS011;8501;49.926;8.404;2023-09-30T13:44:28;6.55;;;3.97;;
16766;SDS011;8501;49.926;8.404;2023-09-30T13:46:54;7.22;;;3.92;;
16766;SDS011;8501;49.926;8.404;2023-09-30T13:49:19;7.13;;;3.80;;
16766;SDS011;8501;49.926;8.404;2023-09-30T13:51:45;6.22;;;4.18;;
16766;SDS011;8501;49.926;8.404;2023-09-30T13:54:11;8.13;;;4.22;;
16766;SDS011;8501;49.926;8.404;2023-09-30T13:56:36;6.57;;;3.92;;
16766;SDS011;8501;49.926;8.404;2023-09-30T13:59:02;6.18;;;3.90;;
16766;SDS011;8501;49.926;8.404;2023-09-30T14:01:30;6.13;;;3.88;;
16766;SDS011;8501;49.926;8.404;2023-09-30T14:03:56;9.93;;;4.55;;
16766;SDS011;8501;49.926;8.404;2023-09-30T14:06:22;7.68;;;3.92;;
16766;SDS011;8501;49.926;8.404;2023-09-30T14:08:48;7.40;;;4.43;;
16766;SDS011;8501;49.926;8.404;2023-09-30T14:11:15;6.63;;;4.20;;
16766;SDS011;8501;49.926;8.404;2023-09-30T14:13:40;6.50;;;4.38;;
16766;SDS011;8501;49.926;8.404;2023-09-30T14:16:07;8.68;;;4.15;;
16766;SDS011;8501;49.926;8.404;2023-09-30T14:18:33;6.38;;;3.88;;
16766;SDS011;8501;49.926;8.404;2023-09-30T14:20:59;5.22;;;3.95;;
16766;SDS011;8501;49.926;8.404;2023-09-30T14:23:25;9.60;;;4.28;;
16766;SDS011;8501;49.926;8.404;2023-09-30T14:25:53;6.07;;;4.13;;
16766;SDS011;8501;49.926;8.404;2023-09-30T14:28:20;6.35;;;4.15;;
16766;SDS011;8501;49.926;8.404;2023-09-30T14:30:46;6.38;;;4.10;;
16766;SDS011;8501;49.926;8.404;2023-09-30T14:33:13;5.82;;;3.75;;
16766;SDS011;8501;49.926;8.404;2023-09-30T14:35:38;6.68;;;4.03;;
16766;SDS011;8501;49.926;8.404;2023-09-30T14:38:04;6.45;;;4.20;;
16766;SDS011;8501;49.926;8.404;2023-09-30T14:40:30;8.15;;;4.07;;
16766;SDS011;8501;49.926;8.404;2023-09-30T14:42:55;7.28;;;4.28;;
16766;SDS011;8501;49.926;8.404;2023-09-30T14:45:21;7.25;;;4.03;;
16766;SDS011;8501;49.926;8.404;2023-09-30T14:47:46;6.88;;;4.07;;
16766;SDS011;8501;49.926;8.404;2023-09-30T14:50:12;6.85;;;4.13;;
16766;SDS011;8501;49.926;8.404;2023-09-30T14:52:37;7.68;;;3.90;;
16766;SDS011;8501;49.926;8.404;2023-09-30T14:55:03;7.35;;;4.07;;
16766;SDS011;8501;49.926;8.404;2023-09-30T14:57:29;7.70;;;4.28;;
16766;SDS011;8501;49.926;8.404;2023-09-30T14:59:57;8.32;;;4.85;;
16766;SDS011;8501;49.926;8.404;2023-09-30T15:02:24;7.47;;;4.72;;
16766;SDS011;8501;49.926;8.404;2023-09-30T15:04:51;8.18;;;5.32;;
16766;SDS011;8501;49.926;8.404;2023-09-30T15:07:16;7.88;;;4.72;;
16766;SDS011;8501;49.926;8.404;2023-09-30T15:09:42;6.80;;;4.72;;
16766;SDS011;8501;49.926;8.404;2023-09-30T15:12:08;6.50;;;4.30;;
16766;SDS011;8501;49.926;8.404;2023-09-30T15:14:34;8.00;;;4.00;;
16766;SDS011;8501;49.926;8.404;2023-09-30T15:16:59;7.32;;;4.57;;
16766;SDS011;8501;49.926;8.404;2023-09-30T15:19:25;8.35;;;4.63;;